Time;durP1;ratioP1;P1;durP2;ratioP2;P2;SDS_P1;SDS_P2;PMS_P1;PMS_P2;Temp;Humidity;BMP_temperature;BMP_pressure;BME280_temperature;BME280_humidity;BME280_pressure;Samples;Min_cycle;Max_cycle;Signal;HPM_P1;HPM_P2
2021/03/12 00:00:50;;;;;;;1.00;1.00;;;6.70;99.90;;;;;;4975239;28;20705;-79
2021/03/12 00:03:18;;;;;;;0.30;0.30;;;6.70;99.90;;;;;;4991774;28;20244;-79
2021/03/12 00:05:45;;;;;;;1.70;0.50;;;6.60;99.90;;;;;;4975146;28;20698;-79
2021/03/12 00:08:11;;;;;;;0.60;0.30;;;6.30;99.90;;;;;;4974280;28;20287;-78
2021/03/12 00:10:37;;;;;;;1.53;0.80;;;5.90;99.90;;;;;;4976201;28;20212;-79
2021/03/12 00:13:03;;;;;;;0.47;0.43;;;5.90;99.90;;;;;;4975861;28;20291;-80
2021/03/12 00:15:29;;;;;;;5.20;1.03;;;5.70;99.90;;;;;;4977455;28;20267;-79
2021/03/12 00:17:55;;;;;;;0.10;0.10;;;5.60;99.90;;;;;;4981608;28;20262;-80
2021/03/12 00:20:23;;;;;;;2.20;0.40;;;5.50;99.90;;;;;;4982484;28;20951;-78
2021/03/12 00:22:49;;;;;;;0.30;0.30;;;5.40;99.90;;;;;;4983655;28;20714;-80
2021/03/12 00:25:18;;;;;;;0.30;0.30;;;5.40;99.90;;;;;;4982394;28;20181;-78
2021/03/12 00:27:44;;;;;;;0.73;0.63;;;5.40;99.90;;;;;;4981268;28;20216;-78
2021/03/12 00:30:10;;;;;;;0.73;0.73;;;5.40;99.90;;;;;;4979311;28;20677;-78
2021/03/12 00:32:37;;;;;;;0.27;0.27;;;5.40;99.90;;;;;;4980929;28;20190;-78
2021/03/12 00:35:07;;;;;;;1.00;0.80;;;5.40;99.90;;;;;;4998581;28;20648;-77
2021/03/12 00:37:35;;;;;;;1.00;0.63;;;5.50;99.90;;;;;;4983714;28;20199;-78
2021/03/12 00:40:05;;;;;;;2.93;0.60;;;5.50;99.90;;;;;;4983062;28;20260;-79
2021/03/12 00:42:31;;;;;;;2.03;1.03;;;5.40;99.90;;;;;;5012330;28;20190;-79
2021/03/12 00:44:56;;;;;;;0.60;0.60;;;5.40;99.90;;;;;;4980276;28;20266;-79
2021/03/12 00:47:22;;;;;;;2.13;1.00;;;5.40;99.90;;;;;;4998497;28;20205;-79
2021/03/12 00:49:48;;;;;;;1.10;0.90;;;5.40;99.90;;;;;;4983171;28;20197;-79
2021/03/12 00:52:13;;;;;;;0.53;0.50;;;5.50;99.90;;;;;;4982447;28;20618;-79
2021/03/12 00:54:39;;;;;;;0.97;0.87;;;5.50;99.90;;;;;;4982937;28;20714;-79
2021/03/12 00:57:05;;;;;;;0.73;0.53;;;5.50;99.90;;;;;;4984214;28;20209;-79
2021/03/12 00:59:30;;;;;;;2.40;0.90;;;5.50;99.90;;;;;;4983318;28;20220;-79
2021/03/12 01:01:56;;;;;;;0.50;0.50;;;5.50;99.90;;;;;;4982924;28;20227;-79
2021/03/12 01:04:21;;;;;;;0.60;0.20;;;5.50;99.90;;;;;;4984521;28;20209;-79
2021/03/12 01:06:47;;;;;;;1.93;0.27;;;5.40;99.90;;;;;;4985476;28;20192;-79
2021/03/12 01:09:13;;;;;;;1.00;0.90;;;5.40;99.90;;;;;;4983823;28;20722;-78
2021/03/12 01:11:38;;;;;;;0.70;0.60;;;5.40;99.90;;;;;;4982407;28;20235;-79
2021/03/12 01:14:04;;;;;;;0.30;0.30;;;5.40;99.90;;;;;;4982184;28;20694;-78
2021/03/12 01:16:30;;;;;;;0.60;0.43;;;5.50;99.90;;;;;;4980046;28;20605;-79
2021/03/12 01:18:55;;;;;;;0.50;0.50;;;5.40;99.90;;;;;;4981826;28;20188;-78
2021/03/12 01:21:21;;;;;;;1.70;1.13;;;5.40;99.90;;;;;;4981515;28;20188;-78
2021/03/12 01:23:47;;;;;;;0.33;0.33;;;5.40;99.90;;;;;;4981645;28;20827;-78
2021/03/12 01:26:12;;;;;;;0.20;0.20;;;5.30;99.90;;;;;;4981986;28;20192;-78
2021/03/12 01:28:38;;;;;;;0.10;0.10;;;5.40;99.90;;;;;;4980814;28;20208;-78
2021/03/12 01:31:04;;;;;;;0.37;0.37;;;5.30;99.90;;;;;;4977891;28;20189;-77
2021/03/12 01:33:29;;;;;;;2.47;0.60;;;5.30;99.90;;;;;;4979078;28;20222;-78
2021/03/12 01:35:55;;;;;;;0.40;0.30;;;5.30;99.90;;;;;;4977889;28;20725;-79
2021/03/12 01:38:21;;;;;;;1.30;0.70;;;5.20;99.90;;;;;;4979771;28;20628;-79
2021/03/12 01:40:48;;;;;;;1.70;0.30;;;5.20;99.90;;;;;;4979927;28;20188;-79
2021/03/12 01:43:14;;;;;;;0.83;0.83;;;5.10;99.90;;;;;;4976947;28;20240;-79
2021/03/12 01:45:43;;;;;;;1.53;0.73;;;5.00;99.90;;;;;;4980412;28;20239;-79
2021/03/12 01:48:12;;;;;;;3.33;0.70;;;5.00;99.90;;;;;;4978976;28;20208;-78
2021/03/12 01:50:39;;;;;;;0.37;0.30;;;5.00;99.90;;;;;;4978524;28;20203;-79
2021/03/12 01:53:16;;;;;;;0.70;0.70;;;4.90;99.90;;;;;;4978648;28;20263;-80
2021/03/12 01:55:42;;;;;;;0.63;0.50;;;5.00;99.90;;;;;;4979976;28;20298;-79
2021/03/12 01:58:08;;;;;;;0.40;0.40;;;5.00;99.90;;;;;;4977796;28;20216;-77
2021/03/12 02:00:35;;;;;;;0.40;0.40;;;4.90;99.90;;;;;;4977699;28;20181;-80
2021/03/12 02:03:02;;;;;;;0.80;0.70;;;4.90;99.90;;;;;;4978036;28;20215;-78
2021/03/12 02:05:28;;;;;;;0.97;0.40;;;4.90;99.90;;;;;;4977071;28;20180;-79
2021/03/12 02:07:55;;;;;;;0.57;0.50;;;4.80;99.90;;;;;;4993885;28;21241;-79
2021/03/12 02:10:24;;;;;;;1.67;0.73;;;4.80;99.90;;;;;;4977530;28;20177;-79
2021/03/12 02:13:12;;;;;;;0.70;0.50;;;4.80;99.90;;;;;;4977104;28;20177;-79
2021/03/12 02:15:43;;;;;;;3.13;0.80;;;5.00;99.90;;;;;;4978108;28;20666;-79
2021/03/12 02:18:17;;;;;;;0.67;0.60;;;5.00;99.90;;;;;;4978654;28;20192;-79
2021/03/12 02:21:11;;;;;;;0.50;0.50;;;5.00;99.90;;;;;;4977920;28;20975;-78
2021/03/12 02:23:51;;;;;;;2.63;0.97;;;4.90;99.90;;;;;;4994047;28;20608;-79
2021/03/12 02:26:59;;;;;;;0.53;0.53;;;5.00;99.90;;;;;;4978569;28;20183;-79
2021/03/12 02:29:26;;;;;;;1.10;0.60;;;5.00;99.90;;;;;;4974476;28;20192;-79
2021/03/12 02:31:54;;;;;;;4.63;1.00;;;5.10;99.90;;;;;;4974451;28;20203;-79
2021/03/12 02:34:24;;;;;;;0.60;0.40;;;5.00;99.90;;;;;;4977798;28;20195;-78
2021/03/12 02:36:54;;;;;;;0.67;0.67;;;4.80;99.90;;;;;;4977283;28;20271;-79
2021/03/12 02:39:22;;;;;;;0.77;0.77;;;4.80;99.90;;;;;;4978326;28;20247;-80
2021/03/12 02:41:49;;;;;;;1.30;1.20;;;4.80;99.90;;;;;;4978092;28;20279;-79
2021/03/12 02:44:16;;;;;;;1.50;1.30;;;4.80;99.90;;;;;;5009575;28;20300;-79
2021/03/12 02:46:42;;;;;;;1.73;1.03;;;4.80;99.90;;;;;;4976894;28;20188;-78
2021/03/12 02:49:11;;;;;;;1.23;1.13;;;4.80;99.90;;;;;;4976476;28;20189;-80
2021/03/12 02:51:37;;;;;;;3.07;2.47;;;4.90;99.90;;;;;;5009195;28;20227;-79
2021/03/12 02:54:03;;;;;;;2.43;1.90;;;5.00;99.90;;;;;;4977554;28;20240;-79
2021/03/12 02:56:29;;;;;;;2.53;1.90;;;5.00;99.90;;;;;;4976916;28;20192;-78
2021/03/12 02:58:55;;;;;;;3.00;1.80;;;5.10;99.90;;;;;;4977042;28;20180;-78
2021/03/12 03:01:22;;;;;;;2.17;1.40;;;5.10;99.90;;;;;;4993289;28;20184;-79
2021/03/12 03:03:49;;;;;;;1.47;1.37;;;5.10;99.90;;;;;;4976990;28;20282;-79
2021/03/12 03:06:15;;;;;;;2.73;2.20;;;5.10;99.90;;;;;;4992257;28;20746;-79
2021/03/12 03:08:43;;;;;;;1.90;1.80;;;5.10;99.90;;;;;;4975826;28;20287;-79
2021/03/12 03:11:11;;;;;;;4.80;2.10;;;5.10;99.90;;;;;;4978946;28;20216;-78
2021/03/12 03:13:39;;;;;;;2.17;1.53;;;5.10;99.90;;;;;;4992476;28;20618;-79
2021/03/12 03:16:07;;;;;;;2.63;2.43;;;5.10;99.90;;;;;;4992059;28;20224;-79
2021/03/12 03:18:37;;;;;;;1.17;1.00;;;5.20;99.90;;;;;;4977700;28;20185;-79
2021/03/12 03:21:03;;;;;;;1.83;1.00;;;5.10;99.90;;;;;;4978135;28;20224;-79
2021/03/12 03:23:29;;;;;;;1.20;1.10;;;5.00;99.90;;;;;;4978736;28;20211;-78
2021/03/12 03:25:55;;;;;;;0.70;0.70;;;5.00;99.90;;;;;;4979119;28;20193;-79
2021/03/12 03:28:21;;;;;;;1.27;0.87;;;5.00;99.90;;;;;;4976669;28;20211;-79
2021/03/12 03:30:47;;;;;;;3.03;0.70;;;4.90;99.90;;;;;;4976612;28;20193;-78
2021/03/12 03:33:12;;;;;;;0.70;0.63;;;4.80;99.90;;;;;;4978270;28;20212;-77
2021/03/12 03:35:38;;;;;;;0.97;0.70;;;4.80;99.90;;;;;;4977436;28;20189;-76
2021/03/12 03:38:04;;;;;;;1.73;0.50;;;4.80;99.90;;;;;;4992826;28;20189;-78
2021/03/12 03:40:29;;;;;;;0.60;0.40;;;4.70;99.90;;;;;;4977549;28;20206;-79
2021/03/12 03:42:58;;;;;;;0.60;0.40;;;4.70;99.90;;;;;;4977543;28;20217;-77
2021/03/12 03:45:27;;;;;;;0.97;0.67;;;4.60;99.90;;;;;;4992693;28;20467;-78
2021/03/12 03:47:55;;;;;;;1.17;1.07;;;4.70;99.90;;;;;;4976592;28;20634;-79
2021/03/12 03:50:21;;;;;;;1.10;1.00;;;4.60;99.90;;;;;;4976881;28;20204;-77
2021/03/12 03:52:47;;;;;;;0.50;0.50;;;4.60;99.90;;;;;;4974909;28;20176;-77
2021/03/12 03:55:14;;;;;;;0.43;0.43;;;4.70;99.90;;;;;;4977189;28;20192;-77
2021/03/12 03:57:42;;;;;;;0.73;0.73;;;4.70;99.90;;;;;;4975872;28;20188;-78
2021/03/12 04:00:09;;;;;;;0.93;0.70;;;4.70;99.90;;;;;;4976777;28;20180;-77
2021/03/12 04:02:35;;;;;;;1.17;1.07;;;4.60;99.90;;;;;;4976220;28;20189;-77
2021/03/12 04:05:04;;;;;;;0.70;0.53;;;4.60;99.90;;;;;;4976577;28;20195;-78
2021/03/12 04:07:30;;;;;;;0.80;0.60;;;4.50;99.90;;;;;;4975351;28;20208;-79
2021/03/12 04:09:57;;;;;;;1.00;0.80;;;4.50;99.90;;;;;;4977943;28;20811;-77
2021/03/12 04:12:24;;;;;;;0.80;0.80;;;4.40;99.90;;;;;;4987808;23;20327;-66
2021/03/12 04:14:51;;;;;;;1.30;0.93;;;4.40;99.90;;;;;;4992841;28;20219;-65
2021/03/12 04:17:17;;;;;;;0.80;0.80;;;4.40;99.90;;;;;;4975397;28;20246;-67
2021/03/12 04:19:44;;;;;;;1.10;1.00;;;4.40;99.90;;;;;;4977488;28;20264;-64
2021/03/12 04:22:10;;;;;;;2.50;1.20;;;4.40;99.90;;;;;;4975554;28;20203;-66
2021/03/12 04:24:36;;;;;;;1.03;0.90;;;4.50;99.90;;;;;;4975605;28;20223;-67
2021/03/12 04:27:03;;;;;;;3.63;0.83;;;4.60;99.90;;;;;;4978818;28;20180;-64
2021/03/12 04:29:30;;;;;;;0.80;0.63;;;4.60;99.90;;;;;;4991836;28;20197;-65
2021/03/12 04:31:56;;;;;;;3.40;1.27;;;4.70;99.90;;;;;;4976652;28;20275;-68
2021/03/12 04:34:23;;;;;;;1.53;0.80;;;4.70;99.90;;;;;;4977770;28;20210;-67
2021/03/12 04:36:49;;;;;;;0.87;0.70;;;4.80;99.90;;;;;;4978814;28;20541;-69
2021/03/12 04:39:16;;;;;;;1.23;1.00;;;4.80;99.90;;;;;;4981039;28;20210;-68
2021/03/12 04:41:42;;;;;;;1.10;0.90;;;4.80;99.90;;;;;;4976039;28;20181;-66
2021/03/12 04:44:10;;;;;;;0.93;0.87;;;4.90;99.90;;;;;;4977850;28;20212;-66
2021/03/12 04:46:37;;;;;;;1.93;1.00;;;4.90;99.90;;;;;;4979327;28;20185;-69
2021/03/12 04:49:05;;;;;;;1.37;0.90;;;5.00;99.90;;;;;;4979368;28;20660;-67
2021/03/12 04:51:31;;;;;;;1.23;1.13;;;5.00;99.90;;;;;;5008167;28;20200;-66
2021/03/12 04:53:58;;;;;;;1.40;1.30;;;4.90;99.90;;;;;;4977730;28;20672;-69
2021/03/12 04:56:23;;;;;;;1.50;1.07;;;4.90;99.90;;;;;;4977722;28;20698;-66
2021/03/12 04:58:49;;;;;;;1.80;1.67;;;4.80;99.90;;;;;;4978029;28;20185;-68
2021/03/12 05:01:15;;;;;;;1.07;0.80;;;4.90;99.90;;;;;;4979493;28;20207;-67
2021/03/12 05:03:41;;;;;;;1.37;1.27;;;4.90;99.90;;;;;;4980700;28;20208;-68
2021/03/12 05:06:08;;;;;;;1.10;1.00;;;5.00;99.90;;;;;;4980026;28;20686;-65
2021/03/12 05:08:36;;;;;;;1.17;1.03;;;5.00;99.90;;;;;;4973705;28;20613;-66
2021/03/12 05:11:07;;;;;;;1.17;1.00;;;5.00;99.90;;;;;;4975910;28;20272;-67
2021/03/12 05:13:33;;;;;;;1.47;1.23;;;5.00;99.90;;;;;;4970215;28;20213;-68
2021/03/12 05:15:59;;;;;;;1.97;1.47;;;5.00;99.90;;;;;;4972744;28;20200;-69
2021/03/12 05:18:24;;;;;;;1.90;1.63;;;4.90;99.90;;;;;;4968730;28;20713;-66
2021/03/12 05:20:51;;;;;;;2.10;1.90;;;4.90;99.90;;;;;;4972387;28;20653;-67
2021/03/12 05:23:18;;;;;;;1.33;1.23;;;4.80;99.90;;;;;;4969797;28;20317;-68
2021/03/12 05:25:44;;;;;;;2.50;1.70;;;4.70;99.90;;;;;;4974500;28;20267;-66
2021/03/12 05:28:11;;;;;;;3.00;1.30;;;4.60;99.90;;;;;;4970291;28;20625;-69
2021/03/12 05:30:37;;;;;;;1.80;1.40;;;4.70;99.90;;;;;;4968197;28;20235;-69
2021/03/12 05:33:04;;;;;;;2.33;1.53;;;4.60;99.90;;;;;;4974099;28;20181;-66
2021/03/12 05:35:30;;;;;;;1.37;1.27;;;4.60;99.90;;;;;;4967379;28;20192;-68
2021/03/12 05:37:55;;;;;;;2.17;1.47;;;4.70;99.90;;;;;;4967171;28;20188;-66
2021/03/12 05:40:21;;;;;;;1.63;1.13;;;4.70;99.90;;;;;;4968905;28;20189;-68
2021/03/12 05:42:50;;;;;;;1.93;1.60;;;4.80;99.90;;;;;;4972197;28;20242;-69
2021/03/12 05:45:17;;;;;;;4.23;2.10;;;4.90;99.90;;;;;;4969696;28;20247;-69
2021/03/12 05:47:43;;;;;;;4.60;1.70;;;4.90;99.90;;;;;;4971758;28;20746;-69
2021/03/12 05:50:09;;;;;;;1.13;0.90;;;5.00;99.90;;;;;;4971110;28;20220;-68
2021/03/12 05:52:35;;;;;;;2.03;1.60;;;5.00;99.90;;;;;;4968615;28;20231;-65
2021/03/12 05:55:01;;;;;;;1.47;1.20;;;5.00;99.90;;;;;;4970091;28;20259;-68
2021/03/12 05:57:32;;;;;;;0.60;0.60;;;5.00;99.90;;;;;;4977505;28;20185;-69
2021/03/12 06:00:00;;;;;;;1.63;1.10;;;5.00;99.90;;;;;;4977006;28;20193;-68
2021/03/12 06:02:27;;;;;;;2.17;1.30;;;5.10;99.90;;;;;;4971166;28;20184;-67
2021/03/12 06:04:53;;;;;;;1.20;1.10;;;5.00;99.90;;;;;;4974502;28;20217;-68
2021/03/12 06:07:18;;;;;;;0.87;0.80;;;5.00;99.90;;;;;;4970594;28;20200;-65
2021/03/12 06:09:45;;;;;;;2.60;1.17;;;5.00;99.90;;;;;;4973432;28;20193;-68
2021/03/12 06:12:12;;;;;;;2.03;1.73;;;4.80;99.90;;;;;;4973292;28;20254;-67
2021/03/12 06:14:53;;;;;;;2.03;1.67;;;4.80;99.90;;;;;;4971965;28;20374;-65
2021/03/12 06:17:38;;;;;;;1.73;1.57;;;4.80;99.90;;;;;;4975598;28;20180;-64
2021/03/12 06:20:09;;;;;;;1.77;1.67;;;4.60;99.90;;;;;;4969819;28;20272;-68
2021/03/12 06:22:36;;;;;;;2.10;1.80;;;4.50;99.90;;;;;;4970545;28;20961;-66
2021/03/12 06:25:13;;;;;;;1.90;1.30;;;4.50;99.90;;;;;;4980364;28;20262;-65
2021/03/12 06:27:39;;;;;;;4.30;2.67;;;4.50;99.90;;;;;;4969946;28;20282;-67
2021/03/12 06:30:06;;;;;;;2.43;1.97;;;4.40;99.90;;;;;;4966574;28;20189;-66
2021/03/12 06:32:43;;;;;;;3.07;2.27;;;4.40;99.90;;;;;;4969125;28;20196;-66
2021/03/12 06:35:14;;;;;;;2.90;2.00;;;4.50;99.90;;;;;;4968435;28;21004;-67
2021/03/12 06:37:41;;;;;;;3.10;2.20;;;4.60;99.90;;;;;;4970685;28;20654;-65
2021/03/12 06:40:18;;;;;;;2.27;1.97;;;4.60;99.90;;;;;;4973390;28;20267;-65
2021/03/12 06:43:01;;;;;;;1.47;1.10;;;4.70;99.90;;;;;;4966951;28;20193;-67
2021/03/12 06:45:28;;;;;;;1.63;1.53;;;4.80;99.90;;;;;;4977215;28;20199;-66
2021/03/12 06:48:31;;;;;;;1.00;0.87;;;4.80;99.90;;;;;;4979604;28;20968;-68
2021/03/12 06:51:10;;;;;;;1.50;1.17;;;4.80;99.90;;;;;;4965099;28;20208;-69
2021/03/12 06:53:40;;;;;;;1.37;0.70;;;4.90;99.90;;;;;;4971560;28;20209;-65
2021/03/12 06:56:08;;;;;;;1.20;0.80;;;4.90;99.90;;;;;;4975027;28;20652;-65
2021/03/12 06:58:34;;;;;;;0.50;0.50;;;4.80;99.90;;;;;;4967557;28;20266;-68
2021/03/12 07:01:01;;;;;;;0.83;0.73;;;4.80;99.90;;;;;;4967887;28;20197;-69
2021/03/12 07:03:32;;;;;;;0.93;0.77;;;4.80;99.90;;;;;;4969684;28;20491;-67
2021/03/12 07:06:04;;;;;;;0.63;0.57;;;4.80;99.90;;;;;;4981409;28;20527;-67
2021/03/12 07:08:41;;;;;;;1.60;0.50;;;4.80;99.90;;;;;;4974048;28;20208;-70
2021/03/12 07:11:27;;;;;;;0.53;0.53;;;4.80;99.90;;;;;;4969611;28;20188;-68
2021/03/12 07:13:58;;;;;;;0.50;0.50;;;4.70;99.90;;;;;;4969150;28;20225;-65
2021/03/12 07:16:25;;;;;;;2.50;1.03;;;4.60;99.90;;;;;;4974762;28;20187;-67
2021/03/12 07:18:52;;;;;;;0.93;0.70;;;4.70;99.90;;;;;;4977277;28;20255;-65
2021/03/12 07:21:29;;;;;;;1.13;0.77;;;4.80;99.90;;;;;;4969828;28;20196;-69
2021/03/12 07:24:02;;;;;;;0.80;0.63;;;4.80;99.90;;;;;;4968067;28;20211;-64
2021/03/12 07:26:48;;;;;;;0.67;0.67;;;5.00;99.90;;;;;;4975649;28;20279;-67
2021/03/12 07:29:17;;;;;;;1.17;0.73;;;5.10;99.90;;;;;;4981235;28;20197;-66
2021/03/12 07:31:44;;;;;;;1.00;0.90;;;5.20;99.90;;;;;;4964608;28;20279;-66
2021/03/12 07:34:19;;;;;;;1.40;1.10;;;5.20;99.90;;;;;;4968836;28;20326;-66
2021/03/12 07:36:47;;;;;;;1.03;0.80;;;5.20;99.90;;;;;;4969108;28;20331;-67
2021/03/12 07:39:21;;;;;;;1.33;1.23;;;5.30;99.90;;;;;;4972856;28;20192;-67
2021/03/12 07:41:48;;;;;;;1.27;1.00;;;5.30;99.90;;;;;;4966425;28;20189;-66
2021/03/12 07:44:15;;;;;;;1.53;1.43;;;5.30;99.90;;;;;;4972758;28;20277;-65
2021/03/12 07:46:43;;;;;;;1.57;1.47;;;5.40;99.90;;;;;;4998384;28;20193;-69
2021/03/12 07:49:27;;;;;;;2.50;1.37;;;5.50;99.90;;;;;;4964123;28;20700;-69
2021/03/12 07:51:52;;;;;;;2.63;1.50;;;5.60;99.90;;;;;;4968296;28;20595;-69
2021/03/12 07:54:42;;;;;;;1.17;1.07;;;5.80;99.90;;;;;;4970905;28;20710;-65
2021/03/12 07:57:29;;;;;;;1.67;1.27;;;6.00;99.90;;;;;;4966210;28;20213;-68
2021/03/12 07:59:55;;;;;;;2.00;1.47;;;6.10;99.90;;;;;;4972021;28;20196;-67
2021/03/12 08:02:21;;;;;;;2.63;1.70;;;6.20;99.90;;;;;;4965625;28;20173;-67
2021/03/12 08:04:48;;;;;;;3.13;1.60;;;6.30;99.90;;;;;;4967145;28;20196;-68
2021/03/12 08:07:17;;;;;;;1.97;1.77;;;6.30;99.90;;;;;;4970245;28;20597;-66
2021/03/12 08:09:50;;;;;;;2.23;1.97;;;6.40;99.90;;;;;;4970398;28;20652;-68
2021/03/12 08:12:32;;;;;;;1.53;1.40;;;6.60;99.90;;;;;;4975750;28;20204;-67
2021/03/12 08:15:14;;;;;;;2.27;1.83;;;6.50;99.90;;;;;;4973202;28;20687;-68
2021/03/12 08:17:40;;;;;;;2.23;1.83;;;6.60;99.90;;;;;;4964334;28;20213;-67
2021/03/12 08:20:25;;;;;;;2.60;2.20;;;6.70;99.90;;;;;;4965314;28;20191;-69
2021/03/12 08:22:54;;;;;;;2.80;1.60;;;6.90;99.90;;;;;;4969778;28;20188;-68
2021/03/12 08:25:40;;;;;;;4.13;2.60;;;6.90;99.90;;;;;;4973548;28;20268;-69
2021/03/12 08:28:06;;;;;;;1.93;1.83;;;6.90;99.90;;;;;;4965506;28;20217;-68
2021/03/12 08:30:35;;;;;;;2.63;2.13;;;7.00;99.90;;;;;;4972795;28;20238;-68
2021/03/12 08:33:04;;;;;;;2.33;1.97;;;7.00;99.90;;;;;;4969713;28;20180;-67
2021/03/12 08:35:33;;;;;;;3.20;2.40;;;7.30;99.90;;;;;;4970535;28;20180;-69
2021/03/12 08:38:04;;;;;;;2.57;2.23;;;7.50;99.90;;;;;;4976510;28;20660;-69
2021/03/12 08:40:32;;;;;;;3.43;2.43;;;7.50;99.90;;;;;;4977782;28;20331;-69
2021/03/12 08:43:04;;;;;;;3.03;2.50;;;7.60;99.90;;;;;;4979079;28;20196;-69
2021/03/12 08:45:45;;;;;;;3.67;2.33;;;7.60;99.90;;;;;;4980562;28;20192;-70
2021/03/12 08:48:20;;;;;;;3.70;2.67;;;7.60;99.90;;;;;;4971405;28;20204;-66
2021/03/12 08:51:11;;;;;;;2.23;2.03;;;7.50;99.90;;;;;;4988249;28;20263;-68
2021/03/12 08:53:39;;;;;;;2.67;1.73;;;7.60;99.90;;;;;;4975454;28;20200;-68
2021/03/12 08:56:08;;;;;;;1.63;1.53;;;7.50;99.90;;;;;;4970907;28;20240;-69
2021/03/12 08:58:35;;;;;;;4.00;1.87;;;7.70;99.90;;;;;;4977036;28;20598;-69
2021/03/12 09:01:13;;;;;;;2.20;1.20;;;7.80;99.90;;;;;;4980258;28;20204;-70
2021/03/12 09:03:41;;;;;;;2.97;1.30;;;7.80;99.90;;;;;;4976792;28;20306;-68
2021/03/12 09:06:10;;;;;;;1.10;1.00;;;7.90;99.90;;;;;;4980584;28;20191;-69
2021/03/12 09:08:38;;;;;;;1.30;1.20;;;8.00;99.90;;;;;;4969694;28;20227;-69
2021/03/12 09:11:05;;;;;;;1.57;1.20;;;7.90;99.90;;;;;;4971081;28;20188;-68
2021/03/12 09:13:37;;;;;;;1.43;1.13;;;8.10;99.90;;;;;;4986705;28;20632;-68
2021/03/12 09:16:04;;;;;;;1.13;1.00;;;8.20;99.90;;;;;;4976318;28;20258;-68
2021/03/12 09:18:31;;;;;;;1.00;0.90;;;8.10;99.90;;;;;;4972987;28;20188;-70
2021/03/12 09:21:07;;;;;;;1.20;1.10;;;7.90;99.90;;;;;;4977682;28;20330;-67
2021/03/12 09:23:36;;;;;;;1.83;1.40;;;8.00;99.90;;;;;;4974731;28;20723;-69
2021/03/12 09:26:13;;;;;;;1.87;1.23;;;8.10;99.90;;;;;;4977632;28;20730;-70
2021/03/12 09:28:40;;;;;;;1.40;1.20;;;8.20;99.90;;;;;;4975013;28;20692;-67
2021/03/12 09:31:08;;;;;;;8.47;2.63;;;8.40;99.90;;;;;;4981586;28;20188;-67
2021/03/12 09:33:37;;;;;;;7.40;1.70;;;8.60;99.90;;;;;;4981243;28;20200;-68
2021/03/12 09:36:21;;;;;;;1.90;1.40;;;8.60;99.90;;;;;;4979510;28;20554;-70
2021/03/12 09:38:47;;;;;;;3.03;1.80;;;8.60;99.90;;;;;;4977950;28;20239;-68
2021/03/12 09:41:27;;;;;;;3.13;1.20;;;8.60;99.90;;;;;;4979446;28;20210;-70
2021/03/12 09:44:00;;;;;;;2.23;1.43;;;8.60;99.90;;;;;;4979731;28;20240;-70
2021/03/12 09:46:28;;;;;;;2.17;1.93;;;8.40;99.90;;;;;;4995474;28;20181;-70
2021/03/12 09:48:54;;;;;;;1.70;1.30;;;8.40;99.90;;;;;;4978717;28;20208;-69
2021/03/12 09:51:20;;;;;;;1.47;1.37;;;8.80;99.90;;;;;;4979367;28;20197;-67
2021/03/12 09:53:48;;;;;;;1.00;0.90;;;8.70;99.90;;;;;;4979874;28;20204;-68
2021/03/12 09:56:14;;;;;;;2.07;1.43;;;8.50;99.90;;;;;;4979599;28;20192;-67
2021/03/12 09:58:40;;;;;;;1.40;1.10;;;8.70;99.90;;;;;;4980026;28;20200;-70
2021/03/12 10:01:14;;;;;;;2.07;1.30;;;8.50;99.90;;;;;;4978504;28;20760;-68
2021/03/12 10:03:40;;;;;;;2.00;1.10;;;8.50;99.90;;;;;;4978466;28;20207;-67
2021/03/12 10:06:13;;;;;;;1.80;1.53;;;8.50;99.90;;;;;;4979190;28;20196;-68
2021/03/12 10:09:04;;;;;;;1.60;1.50;;;8.60;99.90;;;;;;4977203;28;20782;-70
2021/03/12 10:11:41;;;;;;;2.33;1.40;;;8.80;99.90;;;;;;4979778;28;20260;-70
2021/03/12 10:14:38;;;;;;;2.17;1.10;;;8.80;99.90;;;;;;4979696;28;20216;-67
2021/03/12 10:17:26;;;;;;;12.27;1.20;;;8.90;99.90;;;;;;4965866;28;20231;-68
2021/03/12 10:19:55;;;;;;;0.70;0.70;;;9.00;99.90;;;;;;4979920;28;20181;-68
2021/03/12 10:22:23;;;;;;;1.07;1.00;;;8.90;99.90;;;;;;4979732;28;20546;-68
2021/03/12 10:25:00;;;;;;;1.00;0.83;;;8.80;99.90;;;;;;4978032;28;20213;-70
2021/03/12 10:27:29;;;;;;;1.43;0.60;;;8.70;99.90;;;;;;4979784;28;20208;-67
2021/03/12 10:29:55;;;;;;;1.60;1.00;;;8.70;99.90;;;;;;4974602;28;20246;-69
2021/03/12 10:32:22;;;;;;;0.80;0.80;;;8.70;99.90;;;;;;4977209;28;20226;-69
2021/03/12 10:34:51;;;;;;;1.23;0.83;;;8.80;99.90;;;;;;4973514;28;20816;-70
2021/03/12 10:37:19;;;;;;;0.60;0.50;;;8.90;99.90;;;;;;4975803;28;20185;-68
2021/03/12 10:39:47;;;;;;;0.93;0.77;;;9.00;99.90;;;;;;4977456;28;20180;-69
2021/03/12 10:42:14;;;;;;;1.17;0.53;;;9.10;99.90;;;;;;4974718;28;20220;-67
2021/03/12 10:44:58;;;;;;;1.80;0.80;;;9.20;99.90;;;;;;4977905;28;20204;-69
2021/03/12 10:47:24;;;;;;;0.77;0.70;;;9.20;99.90;;;;;;4975962;28;20574;-68
2021/03/12 10:49:50;;;;;;;0.70;0.70;;;9.10;99.90;;;;;;4974853;28;20181;-70
2021/03/12 10:52:28;;;;;;;1.13;0.83;;;9.00;99.90;;;;;;4974685;28;20239;-68
2021/03/12 10:54:56;;;;;;;0.67;0.57;;;8.80;99.90;;;;;;4975145;28;20211;-69
2021/03/12 10:57:37;;;;;;;0.83;0.50;;;8.70;99.90;;;;;;4973602;28;20247;-69
2021/03/12 11:00:07;;;;;;;0.73;0.57;;;8.90;99.90;;;;;;4973926;28;20611;-68
2021/03/12 11:02:37;;;;;;;1.20;0.50;;;9.20;99.90;;;;;;4973503;28;20634;-69
2021/03/12 11:05:04;;;;;;;2.10;0.50;;;9.30;99.90;;;;;;4972502;28;20213;-70
2021/03/12 11:07:29;;;;;;;1.43;1.23;;;9.40;99.90;;;;;;4968911;28;20278;-70
2021/03/12 11:09:55;;;;;;;0.50;0.50;;;9.40;99.90;;;;;;4969119;28;20188;-70
2021/03/12 11:12:21;;;;;;;2.93;0.70;;;9.50;99.90;;;;;;4962392;28;20579;-69
2021/03/12 11:14:48;;;;;;;2.07;0.97;;;9.50;99.90;;;;;;4962432;28;20208;-68
2021/03/12 11:17:14;;;;;;;1.10;0.60;;;9.50;99.90;;;;;;4962418;28;20226;-70
2021/03/12 11:19:39;;;;;;;1.07;0.70;;;9.60;99.90;;;;;;4964471;28;20268;-69
2021/03/12 11:22:05;;;;;;;0.67;0.53;;;9.60;99.90;;;;;;4968038;28;20185;-69
2021/03/12 11:24:31;;;;;;;1.10;0.47;;;9.70;99.90;;;;;;4969353;28;20694;-70
2021/03/12 11:26:57;;;;;;;1.10;0.67;;;9.60;99.90;;;;;;4972657;28;20598;-70
2021/03/12 11:29:23;;;;;;;1.23;0.50;;;9.70;99.90;;;;;;4969982;28;20718;-71
2021/03/12 11:31:49;;;;;;;0.57;0.43;;;9.90;99.90;;;;;;4967688;28;20272;-68
2021/03/12 11:34:15;;;;;;;0.90;0.50;;;10.20;99.90;;;;;;4963493;28;20263;-68
2021/03/12 11:36:40;;;;;;;0.70;0.63;;;10.50;99.90;;;;;;4963741;28;20267;-69
2021/03/12 11:39:08;;;;;;;1.30;0.63;;;10.60;99.90;;;;;;4968678;28;20367;-68
2021/03/12 11:41:34;;;;;;;0.60;0.53;;;10.80;99.90;;;;;;4965353;28;20184;-67
2021/03/12 11:43:59;;;;;;;1.13;0.60;;;10.80;99.90;;;;;;4961497;28;20299;-68
2021/03/12 11:46:25;;;;;;;0.40;0.40;;;10.80;99.90;;;;;;4969899;28;20453;-69
2021/03/12 11:48:51;;;;;;;1.07;0.60;;;10.70;99.90;;;;;;4966913;28;20524;-70
2021/03/12 11:51:16;;;;;;;1.77;1.17;;;10.90;99.90;;;;;;4966577;28;20227;-69
2021/03/12 11:53:42;;;;;;;0.30;0.30;;;10.80;99.90;;;;;;4964353;28;20637;-70
2021/03/12 11:56:08;;;;;;;0.87;0.40;;;10.70;99.90;;;;;;4973825;28;20188;-69
2021/03/12 11:58:33;;;;;;;1.23;0.80;;;10.70;99.90;;;;;;4967154;28;20192;-67
2021/03/12 12:00:59;;;;;;;2.10;0.50;;;10.40;99.90;;;;;;4964877;28;20192;-67
2021/03/12 12:03:25;;;;;;;1.90;0.60;;;10.00;99.90;;;;;;4965354;28;20212;-68
2021/03/12 12:05:50;;;;;;;2.00;1.00;;;9.90;99.90;;;;;;4972457;28;20196;-69
2021/03/12 12:08:16;;;;;;;1.07;0.37;;;9.90;99.90;;;;;;4971787;28;20363;-67
2021/03/12 12:10:42;;;;;;;0.83;0.50;;;10.10;99.90;;;;;;4967486;28;20652;-68
2021/03/12 12:13:07;;;;;;;2.73;1.37;;;10.30;99.90;;;;;;4970642;28;20650;-69
2021/03/12 12:15:33;;;;;;;1.30;0.97;;;10.40;99.90;;;;;;4974026;28;20536;-67
2021/03/12 12:18:00;;;;;;;0.30;0.30;;;10.40;99.90;;;;;;4970898;28;20554;-69
2021/03/12 12:20:27;;;;;;;1.23;0.40;;;10.30;99.90;;;;;;4966426;28;20226;-69
2021/03/12 12:22:53;;;;;;;0.97;0.50;;;10.20;99.90;;;;;;4969605;28;20279;-69
2021/03/12 12:25:19;;;;;;;2.43;0.50;;;9.90;99.90;;;;;;4972810;28;20188;-67
2021/03/12 12:27:45;;;;;;;1.10;0.37;;;9.90;99.90;;;;;;4974294;28;20263;-68
2021/03/12 12:30:11;;;;;;;1.47;0.53;;;10.00;99.90;;;;;;4971314;28;20189;-69
2021/03/12 12:32:37;;;;;;;0.80;0.47;;;10.10;99.90;;;;;;4967736;28;20214;-69
2021/03/12 12:35:07;;;;;;;0.40;0.40;;;10.10;99.90;;;;;;4974841;28;20239;-68
2021/03/12 12:37:33;;;;;;;1.20;0.50;;;10.10;99.90;;;;;;4976978;28;20400;-72
2021/03/12 12:40:00;;;;;;;0.40;0.33;;;10.30;99.90;;;;;;4971828;28;20196;-68
2021/03/12 12:42:26;;;;;;;0.87;0.30;;;10.20;99.90;;;;;;4965429;28;20193;-68
2021/03/12 12:44:51;;;;;;;1.20;0.47;;;10.40;99.90;;;;;;4969202;28;20613;-69
2021/03/12 12:47:17;;;;;;;0.73;0.63;;;10.60;99.90;;;;;;4967986;28;20675;-67
2021/03/12 12:49:43;;;;;;;0.60;0.40;;;10.70;99.90;;;;;;4972739;28;20541;-69
2021/03/12 12:52:09;;;;;;;1.40;0.80;;;10.80;99.90;;;;;;5004928;28;20473;-68
2021/03/12 12:54:35;;;;;;;0.30;0.30;;;10.70;99.90;;;;;;4971360;28;20196;-68
2021/03/12 12:57:01;;;;;;;0.77;0.33;;;10.70;99.90;;;;;;4973689;28;20616;-70
2021/03/12 12:59:27;;;;;;;0.30;0.30;;;10.70;99.90;;;;;;4971278;28;20220;-68
2021/03/12 13:01:53;;;;;;;0.60;0.60;;;10.70;99.90;;;;;;4977047;28;20189;-72
2021/03/12 13:04:18;;;;;;;0.37;0.37;;;10.60;99.90;;;;;;4973784;28;20208;-68